OOCL California — VRWC8 — position and weather

sailwx.info

Track history (hours):
 
Tides and Currents Weather Stations Pressure Air Temp Water Temp Dewpoint Dewpoint Depression Visibility Wind Speed Wind Dir Waves Ship Positions

OOCL California

Last reported at 2017-Jun-25 16:33 UTC. Time now 2017-Jun-26 14:07 UTC.
Position N 29°53' E 122°51'.

Length 276 m; beam 40 m; draft 14 m.

Type: Ship. MMSI: 477704000.

Date/timePositionNaut miles runAvg speedWind from/ knotsBaromVisibWave heightAir tempDewpointWater temp
2017-Jun-25 16:33N 29°53' E 122°51'73 9.2
2017-Jun-25 08:35N 31°05' E 122°39'312.7
2017-Jun-25 08:23N 31°05' E 122°36'514.1
2017-Jun-25 08:00N 31°06' E 122°30'611.4
2017-Jun-25 07:30N 31°06' E 122°23'814.1
2017-Jun-25 06:58N 31°08' E 122°15'714.7
2017-Jun-25 06:30N 31°12' E 122°08'713.7
2017-Jun-25 06:01N 31°15' E 122°01'714.2
2017-Jun-25 05:30N 31°16' E 121°52'713.3
2017-Jun-25 05:00N 31°18' E 121°45'5 9.2
2017-Jun-25 04:30N 31°20' E 121°40'1 1.8
2017-Jun-25 03:59N 31°20' E 121°39'0 0.0
2017-Jun-25 03:29N 31°20' E 121°39'0 0.0
2017-Jun-25 02:59N 31°20' E 121°39'0 0.0
2017-Jun-25 02:29N 31°20' E 121°39'0 0.0
2017-Jun-25 01:59N 31°20' E 121°39'0 0.0
2017-Jun-25 01:29N 31°20' E 121°39'0 0.1
2017-Jun-25 00:59N 31°20' E 121°39'0 0.1
2017-Jun-25 00:29N 31°20' E 121°39'0 0.0
2017-Jun-24 23:59N 31°20' E 121°39'0 0.0
2017-Jun-24 23:29N 31°20' E 121°39'0 0.0
2017-Jun-24 22:59N 31°20' E 121°39'0 0.0
2017-Jun-24 22:29N 31°20' E 121°39'0 0.0
2017-Jun-24 21:59N 31°20' E 121°39'0 0.0
2017-Jun-24 21:29N 31°20' E 121°39'0 0.0
2017-Jun-24 20:59N 31°20' E 121°39'0 0.0
2017-Jun-24 20:29N 31°20' E 121°39'0 0.0
2017-Jun-24 19:59N 31°20' E 121°39'0 0.0
2017-Jun-24 19:29N 31°20' E 121°39'0 0.0
2017-Jun-24 18:59N 31°20' E 121°39'0 0.0
2017-Jun-24 18:29N 31°20' E 121°39'0 0.0
2017-Jun-24 17:56N 31°20' E 121°39'0 0.0
2017-Jun-24 17:29N 31°20' E 121°39'0 0.0
2017-Jun-24 16:59N 31°20' E 121°39'0 0.0
2017-Jun-24 16:29N 31°20' E 121°39'0 0.0
2017-Jun-24 15:59N 31°20' E 121°39'0 0.0
2017-Jun-24 15:29N 31°20' E 121°39'0 0.0
2017-Jun-24 14:59N 31°20' E 121°39'0 0.0
2017-Jun-24 13:59N 31°20' E 121°39'0 0.0
2017-Jun-24 13:26N 31°20' E 121°39'0 0.0
2017-Jun-24 12:59N 31°20' E 121°39'0 0.0
2017-Jun-24 12:29N 31°20' E 121°39'0 0.1
2017-Jun-24 11:59N 31°20' E 121°39'0 0.1
2017-Jun-24 11:29N 31°20' E 121°39'0 0.0
2017-Jun-24 10:59N 31°20' E 121°39'0 0.0
2017-Jun-24 10:29N 31°20' E 121°39'0 0.0
2017-Jun-24 09:59N 31°20' E 121°39'0 0.0
2017-Jun-24 09:29N 31°20' E 121°39'0 0.0
2017-Jun-24 08:56N 31°20' E 121°39'0 0.0
2017-Jun-24 08:23N 31°20' E 121°39'0 0.0
2017-Jun-24 07:59N 31°20' E 121°39'0 0.0
2017-Jun-24 07:29N 31°20' E 121°39'0 0.0
2017-Jun-24 06:50N 31°20' E 121°39'0 0.0
2017-Jun-24 06:29N 31°20' E 121°39'0 0.1
2017-Jun-24 05:56N 31°20' E 121°39'0 0.0
2017-Jun-24 05:29N 31°20' E 121°39'0 0.1
2017-Jun-24 05:01N 31°20' E 121°39'1 2.0
2017-Jun-24 04:31N 31°21' E 121°39'4 7.2
2017-Jun-24 04:01N 31°20' E 121°42'510.8
2017-Jun-24 03:30N 31°17' E 121°48'510.7
2017-Jun-24 03:00N 31°16' E 121°54'510.7
2017-Jun-24 02:31N 31°15' E 122°00'510.3
2017-Jun-24 02:01N 31°14' E 122°06'5 9.8
2017-Jun-24 01:31N 31°11' E 122°11'4 8.7
2017-Jun-24 01:01N 31°08' E 122°15'4 8.6
2017-Jun-24 00:31N 31°06' E 122°19'4 8.7
2017-Jun-24 00:01N 31°06' E 122°25'5 9.8
2017-Jun-23 23:30N 31°07' E 122°30'5 9.8
2017-Jun-23 23:00N 31°07' E 122°36'43312.1
2017-Jun-22 11:03N 24°32' E 119°13'822.1
2017-Jun-22 10:42N 24°28' E 119°06'422.1
2017-Jun-22 10:30N 24°25' E 119°03'2622.3
2017-Jun-22 09:22N 24°08' E 118°41'822.0
2017-Jun-22 09:00N 24°03' E 118°34'1122.1
2017-Jun-22 08:30N 23°57' E 118°25'1121.6
2017-Jun-22 08:00N 23°49' E 118°17'2321.0
2017-Jun-22 06:54N 23°33' E 117°59'22518.4
2017-Jun-21 18:39N 22°20' E 114°07'  
2017-Jun-19 00:00N 14°54' E 112°12'62617.4 170 / 161003.210.8 29.026.3
2017-Jun-17 12:00N 05°48' E 107°00'23719.7 030 / 81002.610.8 28.022.4
2017-Jun-17 00:00N 02°24' E 105°00'8717.9 020 / 71005.010.8 29.024.9
2017-Jun-16 19:08N 01°15' E 104°07'319.1
2017-Jun-16 18:58N 01°15' E 104°04'918.9
2017-Jun-16 18:30N 01°13' E 103°55'713.8
2017-Jun-16 18:00N 01°12' E 103°48'510.8
2017-Jun-16 17:31N 01°16' E 103°45'1 2.7
2017-Jun-16 17:01N 01°17' E 103°46'0 0.3
2017-Jun-16 16:26N 01°17' E 103°46'0 0.0
2017-Jun-16 15:59N 01°17' E 103°46'0 0.0
2017-Jun-16 15:29N 01°17' E 103°46'0 0.0
2017-Jun-16 14:56N 01°17' E 103°46'0 0.0
2017-Jun-16 14:29N 01°17' E 103°46'0 0.0
2017-Jun-16 13:29N 01°17' E 103°46'0 0.0
2017-Jun-16 12:59N 01°17' E 103°46'0 0.0
2017-Jun-16 12:29N 01°17' E 103°46'0 0.0
2017-Jun-16 11:59N 01°17' E 103°46'0 0.0
2017-Jun-16 11:26N 01°17' E 103°46'0 0.0
2017-Jun-16 10:59N 01°17' E 103°46'0 0.0
2017-Jun-16 10:26N 01°17' E 103°46'0 0.0
2017-Jun-16 09:59N 01°17' E 103°46'0 0.0
2017-Jun-16 09:29N 01°17' E 103°46'0 0.0
2017-Jun-16 08:59N 01°17' E 103°46'0 0.0
2017-Jun-16 08:29N 01°17' E 103°46'0 0.0
2017-Jun-16 07:59N 01°17' E 103°46'0 0.0
2017-Jun-16 07:29N 01°17' E 103°46'0 0.0
2017-Jun-16 06:56N 01°17' E 103°46'0 0.0
2017-Jun-16 06:29N 01°17' E 103°46'0 0.0
2017-Jun-16 05:59N 01°17' E 103°46'0 0.0
2017-Jun-16 05:29N 01°17' E 103°46'0 0.0
2017-Jun-16 04:59N 01°17' E 103°46'0 0.0
2017-Jun-16 04:29N 01°17' E 103°46'0 0.0
2017-Jun-16 03:59N 01°17' E 103°46'0 0.0
2017-Jun-16 03:29N 01°17' E 103°46'0 0.0
2017-Jun-16 02:59N 01°17' E 103°46'0 0.0
2017-Jun-16 02:29N 01°17' E 103°46'0 0.0
2017-Jun-16 01:59N 01°17' E 103°46'0 0.0
2017-Jun-16 01:29N 01°17' E 103°46'0 0.0
2017-Jun-16 00:59N 01°17' E 103°46'0 0.0
2017-Jun-16 00:26N 01°17' E 103°46'0 0.0
2017-Jun-15 23:59N 01°17' E 103°46'0 0.0
2017-Jun-15 23:29N 01°17' E 103°46'0 0.0
2017-Jun-15 22:56N 01°17' E 103°46'0 0.0
2017-Jun-15 22:30N 01°17' E 103°46'1 2.1
2017-Jun-15 22:00N 01°17' E 103°45'1 3.0
2017-Jun-15 21:30N 01°16' E 103°46'4 8.7
2017-Jun-15 21:00N 01°14' E 103°42'713.1
2017-Jun-15 20:30N 01°12' E 103°36'4 8.5
2017-Jun-15 20:00N 01°10' E 103°32'611.3
2017-Jun-15 19:30N 01°11' E 103°27'612.2
2017-Jun-15 19:00N 01°14' E 103°21'510.6
2017-Jun-15 18:30N 01°17' E 103°17'  
Track history (hours):
 
Tides and Currents Weather Stations Pressure Air Temp Water Temp Dewpoint Dewpoint Depression Visibility Wind Speed Wind Dir Waves Ship Positions

OOCL California

Last reported at 2017-Jun-25 16:33 UTC. Time now 2017-Jun-26 14:07 UTC.
Position N 29°53' E 122°51'.

Length 276 m; beam 40 m; draft 14 m.

Type: Ship. MMSI: 477704000.

Date/timePositionNaut miles runAvg speedWind from/ knotsBaromVisibWave heightAir tempDewpointWater temp
2017-Jun-25 16:33N 29°53' E 122°51'73 9.2
2017-Jun-25 08:35N 31°05' E 122°39'312.7
2017-Jun-25 08:23N 31°05' E 122°36'514.1
2017-Jun-25 08:00N 31°06' E 122°30'611.4
2017-Jun-25 07:30N 31°06' E 122°23'814.1
2017-Jun-25 06:58N 31°08' E 122°15'714.7
2017-Jun-25 06:30N 31°12' E 122°08'713.7
2017-Jun-25 06:01N 31°15' E 122°01'714.2
2017-Jun-25 05:30N 31°16' E 121°52'713.3
2017-Jun-25 05:00N 31°18' E 121°45'5 9.2
2017-Jun-25 04:30N 31°20' E 121°40'1 1.8
2017-Jun-25 03:59N 31°20' E 121°39'0 0.0
2017-Jun-25 03:29N 31°20' E 121°39'0 0.0
2017-Jun-25 02:59N 31°20' E 121°39'0 0.0
2017-Jun-25 02:29N 31°20' E 121°39'0 0.0
2017-Jun-25 01:59N 31°20' E 121°39'0 0.0
2017-Jun-25 01:29N 31°20' E 121°39'0 0.1
2017-Jun-25 00:59N 31°20' E 121°39'0 0.1
2017-Jun-25 00:29N 31°20' E 121°39'0 0.0
2017-Jun-24 23:59N 31°20' E 121°39'0 0.0
2017-Jun-24 23:29N 31°20' E 121°39'0 0.0
2017-Jun-24 22:59N 31°20' E 121°39'0 0.0
2017-Jun-24 22:29N 31°20' E 121°39'0 0.0
2017-Jun-24 21:59N 31°20' E 121°39'0 0.0
2017-Jun-24 21:29N 31°20' E 121°39'0 0.0
2017-Jun-24 20:59N 31°20' E 121°39'0 0.0
2017-Jun-24 20:29N 31°20' E 121°39'0 0.0
2017-Jun-24 19:59N 31°20' E 121°39'0 0.0
2017-Jun-24 19:29N 31°20' E 121°39'0 0.0
2017-Jun-24 18:59N 31°20' E 121°39'0 0.0
2017-Jun-24 18:29N 31°20' E 121°39'0 0.0
2017-Jun-24 17:56N 31°20' E 121°39'0 0.0
2017-Jun-24 17:29N 31°20' E 121°39'0 0.0
2017-Jun-24 16:59N 31°20' E 121°39'0 0.0
2017-Jun-24 16:29N 31°20' E 121°39'0 0.0
2017-Jun-24 15:59N 31°20' E 121°39'0 0.0
2017-Jun-24 15:29N 31°20' E 121°39'0 0.0
2017-Jun-24 14:59N 31°20' E 121°39'0 0.0
2017-Jun-24 13:59N 31°20' E 121°39'0 0.0
2017-Jun-24 13:26N 31°20' E 121°39'0 0.0
2017-Jun-24 12:59N 31°20' E 121°39'0 0.0
2017-Jun-24 12:29N 31°20' E 121°39'0 0.1
2017-Jun-24 11:59N 31°20' E 121°39'0 0.1
2017-Jun-24 11:29N 31°20' E 121°39'0 0.0
2017-Jun-24 10:59N 31°20' E 121°39'0 0.0
2017-Jun-24 10:29N 31°20' E 121°39'0 0.0
2017-Jun-24 09:59N 31°20' E 121°39'0 0.0
2017-Jun-24 09:29N 31°20' E 121°39'0 0.0
2017-Jun-24 08:56N 31°20' E 121°39'0 0.0
2017-Jun-24 08:23N 31°20' E 121°39'0 0.0
2017-Jun-24 07:59N 31°20' E 121°39'0 0.0
2017-Jun-24 07:29N 31°20' E 121°39'0 0.0
2017-Jun-24 06:50N 31°20' E 121°39'0 0.0
2017-Jun-24 06:29N 31°20' E 121°39'0 0.1
2017-Jun-24 05:56N 31°20' E 121°39'0 0.0
2017-Jun-24 05:29N 31°20' E 121°39'0 0.1
2017-Jun-24 05:01N 31°20' E 121°39'1 2.0
2017-Jun-24 04:31N 31°21' E 121°39'4 7.2
2017-Jun-24 04:01N 31°20' E 121°42'510.8
2017-Jun-24 03:30N 31°17' E 121°48'510.7
2017-Jun-24 03:00N 31°16' E 121°54'510.7
2017-Jun-24 02:31N 31°15' E 122°00'510.3
2017-Jun-24 02:01N 31°14' E 122°06'5 9.8
2017-Jun-24 01:31N 31°11' E 122°11'4 8.7
2017-Jun-24 01:01N 31°08' E 122°15'4 8.6
2017-Jun-24 00:31N 31°06' E 122°19'4 8.7
2017-Jun-24 00:01N 31°06' E 122°25'5 9.8
2017-Jun-23 23:30N 31°07' E 122°30'5 9.8
2017-Jun-23 23:00N 31°07' E 122°36'43312.1
2017-Jun-22 11:03N 24°32' E 119°13'822.1
2017-Jun-22 10:42N 24°28' E 119°06'422.1
2017-Jun-22 10:30N 24°25' E 119°03'2622.3
2017-Jun-22 09:22N 24°08' E 118°41'822.0
2017-Jun-22 09:00N 24°03' E 118°34'1122.1
2017-Jun-22 08:30N 23°57' E 118°25'1121.6
2017-Jun-22 08:00N 23°49' E 118°17'2321.0
2017-Jun-22 06:54N 23°33' E 117°59'22518.4
2017-Jun-21 18:39N 22°20' E 114°07'  
2017-Jun-19 00:00N 14°54' E 112°12'62617.4 170 / 161003.210.8 29.026.3
2017-Jun-17 12:00N 05°48' E 107°00'23719.7 030 / 81002.610.8 28.022.4
2017-Jun-17 00:00N 02°24' E 105°00'8717.9 020 / 71005.010.8 29.024.9
2017-Jun-16 19:08N 01°15' E 104°07'319.1
2017-Jun-16 18:58N 01°15' E 104°04'918.9
2017-Jun-16 18:30N 01°13' E 103°55'713.8
2017-Jun-16 18:00N 01°12' E 103°48'510.8
2017-Jun-16 17:31N 01°16' E 103°45'1 2.7
2017-Jun-16 17:01N 01°17' E 103°46'0 0.3
2017-Jun-16 16:26N 01°17' E 103°46'0 0.0
2017-Jun-16 15:59N 01°17' E 103°46'0 0.0
2017-Jun-16 15:29N 01°17' E 103°46'0 0.0
2017-Jun-16 14:56N 01°17' E 103°46'0 0.0
2017-Jun-16 14:29N 01°17' E 103°46'0 0.0
2017-Jun-16 13:29N 01°17' E 103°46'0 0.0
2017-Jun-16 12:59N 01°17' E 103°46'0 0.0
2017-Jun-16 12:29N 01°17' E 103°46'0 0.0
2017-Jun-16 11:59N 01°17' E 103°46'0 0.0
2017-Jun-16 11:26N 01°17' E 103°46'0 0.0
2017-Jun-16 10:59N 01°17' E 103°46'0 0.0
2017-Jun-16 10:26N 01°17' E 103°46'0 0.0
2017-Jun-16 09:59N 01°17' E 103°46'0 0.0
2017-Jun-16 09:29N 01°17' E 103°46'0 0.0
2017-Jun-16 08:59N 01°17' E 103°46'0 0.0
2017-Jun-16 08:29N 01°17' E 103°46'0 0.0
2017-Jun-16 07:59N 01°17' E 103°46'0 0.0
2017-Jun-16 07:29N 01°17' E 103°46'0 0.0
2017-Jun-16 06:56N 01°17' E 103°46'0 0.0
2017-Jun-16 06:29N 01°17' E 103°46'0 0.0
2017-Jun-16 05:59N 01°17' E 103°46'0 0.0
2017-Jun-16 05:29N 01°17' E 103°46'0 0.0
2017-Jun-16 04:59N 01°17' E 103°46'0 0.0
2017-Jun-16 04:29N 01°17' E 103°46'0 0.0
2017-Jun-16 03:59N 01°17' E 103°46'0 0.0
2017-Jun-16 03:29N 01°17' E 103°46'0 0.0
2017-Jun-16 02:59N 01°17' E 103°46'0 0.0
2017-Jun-16 02:29N 01°17' E 103°46'0 0.0
2017-Jun-16 01:59N 01°17' E 103°46'0 0.0
2017-Jun-16 01:29N 01°17' E 103°46'0 0.0
2017-Jun-16 00:59N 01°17' E 103°46'0 0.0
2017-Jun-16 00:26N 01°17' E 103°46'0 0.0
2017-Jun-15 23:59N 01°17' E 103°46'0 0.0
2017-Jun-15 23:29N 01°17' E 103°46'0 0.0
2017-Jun-15 22:56N 01°17' E 103°46'0 0.0
2017-Jun-15 22:30N 01°17' E 103°46'1 2.1
2017-Jun-15 22:00N 01°17' E 103°45'1 3.0
2017-Jun-15 21:30N 01°16' E 103°46'4 8.7
2017-Jun-15 21:00N 01°14' E 103°42'713.1
2017-Jun-15 20:30N 01°12' E 103°36'4 8.5
2017-Jun-15 20:00N 01°10' E 103°32'611.3
2017-Jun-15 19:30N 01°11' E 103°27'612.2
2017-Jun-15 19:00N 01°14' E 103°21'510.6
2017-Jun-15 18:30N 01°17' E 103°17'  

Dump ship's entire track history